sensor_id;sensor_type;location;lat;lon;timestamp;pressure;altitude;pressure_sealevel;temperature;humidity
64853;BME280;56050;55.558;-4.644;2022-08-03T00:00:39;100411.00;;;19.30;63.05
64853;BME280;56050;55.558;-4.644;2022-08-03T00:03:05;100407.34;;;19.33;63.17
64853;BME280;56050;55.558;-4.644;2022-08-03T00:05:31;100411.59;;;19.34;63.00
64853;BME280;56050;55.558;-4.644;2022-08-03T00:07:59;100418.28;;;19.33;63.10
64853;BME280;56050;55.558;-4.644;2022-08-03T00:10:25;100423.75;;;19.33;63.34
64853;BME280;56050;55.558;-4.644;2022-08-03T00:12:51;100415.69;;;19.29;63.63
64853;BME280;56050;55.558;-4.644;2022-08-03T00:15:17;100416.13;;;19.28;63.33
64853;BME280;56050;55.558;-4.644;2022-08-03T00:17:43;100412.66;;;19.27;63.41
64853;BME280;56050;55.558;-4.644;2022-08-03T00:20:10;100412.97;;;19.29;63.64
64853;BME280;56050;55.558;-4.644;2022-08-03T00:22:35;100420.38;;;19.29;63.77
64853;BME280;56050;55.558;-4.644;2022-08-03T00:25:01;100410.38;;;19.26;63.69
64853;BME280;56050;55.558;-4.644;2022-08-03T00:27:27;100407.63;;;19.26;63.70
64853;BME280;56050;55.558;-4.644;2022-08-03T00:29:52;100403.38;;;19.25;63.88
64853;BME280;56050;55.558;-4.644;2022-08-03T00:32:19;100400.34;;;19.23;63.87
64853;BME280;56050;55.558;-4.644;2022-08-03T00:34:45;100401.09;;;19.23;63.67
64853;BME280;56050;55.558;-4.644;2022-08-03T00:37:10;100405.81;;;19.23;64.11
64853;BME280;56050;55.558;-4.644;2022-08-03T00:39:36;100402.31;;;19.22;63.99
64853;BME280;56050;55.558;-4.644;2022-08-03T00:42:05;100401.25;;;19.20;63.85
64853;BME280;56050;55.558;-4.644;2022-08-03T00:44:38;100406.72;;;19.20;63.97
64853;BME280;56050;55.558;-4.644;2022-08-03T00:47:04;100406.41;;;19.18;64.24
64853;BME280;56050;55.558;-4.644;2022-08-03T00:49:30;100402.16;;;19.17;64.22
64853;BME280;56050;55.558;-4.644;2022-08-03T00:51:55;100411.56;;;19.16;64.04
64853;BME280;56050;55.558;-4.644;2022-08-03T00:54:22;100406.25;;;19.12;64.19
64853;BME280;56050;55.558;-4.644;2022-08-03T00:56:48;100406.72;;;19.11;64.20
64853;BME280;56050;55.558;-4.644;2022-08-03T00:59:15;100400.47;;;19.10;64.10
64853;BME280;56050;55.558;-4.644;2022-08-03T01:01:40;100397.44;;;19.08;64.00
64853;BME280;56050;55.558;-4.644;2022-08-03T01:04:06;100406.38;;;19.09;64.40
64853;BME280;56050;55.558;-4.644;2022-08-03T01:12:30;100393.41;;;18.82;64.75
64853;BME280;56050;55.558;-4.644;2022-08-03T01:15:21;100395.03;;;18.70;65.53
64853;BME280;56050;55.558;-4.644;2022-08-03T01:18:05;100398.81;;;18.64;65.82
64853;BME280;56050;55.558;-4.644;2022-08-03T01:20:33;100394.69;;;18.59;65.88
64853;BME280;56050;55.558;-4.644;2022-08-03T01:31:14;100375.34;;;18.45;66.48
64853;BME280;56050;55.558;-4.644;2022-08-03T01:33:46;100375.34;;;18.45;66.72
64853;BME280;56050;55.558;-4.644;2022-08-03T01:36:18;100360.97;;;18.44;66.75
64853;BME280;56050;55.558;-4.644;2022-08-03T01:38:55;100359.75;;;18.45;67.08
64853;BME280;56050;55.558;-4.644;2022-08-03T01:41:28;100362.81;;;18.47;67.03
64853;BME280;56050;55.558;-4.644;2022-08-03T01:43:56;100348.06;;;18.45;67.38
64853;BME280;56050;55.558;-4.644;2022-08-03T01:46:23;100351.91;;;18.47;67.11
64853;BME280;56050;55.558;-4.644;2022-08-03T01:48:50;100349.50;;;18.49;66.94
64853;BME280;56050;55.558;-4.644;2022-08-03T01:51:18;100347.53;;;18.50;67.16
64853;BME280;56050;55.558;-4.644;2022-08-03T01:53:45;100349.50;;;18.49;67.31
64853;BME280;56050;55.558;-4.644;2022-08-03T01:56:13;100350.69;;;18.48;67.42
64853;BME280;56050;55.558;-4.644;2022-08-03T01:58:41;100364.34;;;18.48;67.06
64853;BME280;56050;55.558;-4.644;2022-08-03T02:01:09;100357.22;;;18.51;67.38
64853;BME280;56050;55.558;-4.644;2022-08-03T02:03:40;100371.31;;;18.49;67.20
64853;BME280;56050;55.558;-4.644;2022-08-03T02:06:09;100362.03;;;18.47;67.50
64853;BME280;56050;55.558;-4.644;2022-08-03T02:08:37;100369.03;;;18.48;67.49
64853;BME280;56050;55.558;-4.644;2022-08-03T02:11:04;100360.84;;;18.48;67.72
64853;BME280;56050;55.558;-4.644;2022-08-03T02:13:32;100377.97;;;18.48;67.49
64853;BME280;56050;55.558;-4.644;2022-08-03T02:16:00;100376.44;;;18.47;67.60
64853;BME280;56050;55.558;-4.644;2022-08-03T02:18:27;100387.34;;;18.47;67.52
64853;BME280;56050;55.558;-4.644;2022-08-03T02:20:54;100381.47;;;18.49;67.31
64853;BME280;56050;55.558;-4.644;2022-08-03T02:23:20;100389.19;;;18.50;67.38
64853;BME280;56050;55.558;-4.644;2022-08-03T02:25:49;100389.53;;;18.52;67.66
64853;BME280;56050;55.558;-4.644;2022-08-03T02:28:18;100392.09;;;18.56;67.12
64853;BME280;56050;55.558;-4.644;2022-08-03T02:30:48;100403.34;;;18.58;67.03
64853;BME280;56050;55.558;-4.644;2022-08-03T02:33:20;100401.81;;;18.57;67.17
64853;BME280;56050;55.558;-4.644;2022-08-03T02:35:50;100400.75;;;18.54;67.37
64853;BME280;56050;55.558;-4.644;2022-08-03T02:38:19;100401.19;;;18.53;67.45
64853;BME280;56050;55.558;-4.644;2022-08-03T02:40:45;100397.25;;;18.54;67.38
64853;BME280;56050;55.558;-4.644;2022-08-03T02:43:16;100400.44;;;18.52;67.33
64853;BME280;56050;55.558;-4.644;2022-08-03T02:45:46;100394.97;;;18.52;67.53
64853;BME280;56050;55.558;-4.644;2022-08-03T02:48:16;100392.56;;;18.54;67.46
64853;BME280;56050;55.558;-4.644;2022-08-03T02:50:43;100395.28;;;18.54;67.53
64853;BME280;56050;55.558;-4.644;2022-08-03T02:53:10;100387.88;;;18.55;67.48
64853;BME280;56050;55.558;-4.644;2022-08-03T02:55:37;100389.38;;;18.56;67.29
64853;BME280;56050;55.558;-4.644;2022-08-03T02:58:04;100393.75;;;18.53;67.40
64853;BME280;56050;55.558;-4.644;2022-08-03T03:00:31;100388.28;;;18.53;67.35
64853;BME280;56050;55.558;-4.644;2022-08-03T03:03:00;100385.13;;;18.55;66.95
64853;BME280;56050;55.558;-4.644;2022-08-03T03:05:27;100379.69;;;18.55;66.71
64853;BME280;56050;55.558;-4.644;2022-08-03T03:07:53;100371.19;;;18.53;66.84
64853;BME280;56050;55.558;-4.644;2022-08-03T03:10:21;100375.25;;;18.48;66.54
64853;BME280;56050;55.558;-4.644;2022-08-03T03:12:50;100376.56;;;18.44;66.62
64853;BME280;56050;55.558;-4.644;2022-08-03T03:15:16;100373.84;;;18.44;66.57
64853;BME280;56050;55.558;-4.644;2022-08-03T03:17:43;100377.78;;;18.43;66.44
64853;BME280;56050;55.558;-4.644;2022-08-03T03:20:09;100373.53;;;18.42;66.45
64853;BME280;56050;55.558;-4.644;2022-08-03T03:22:36;100368.50;;;18.40;66.40
64853;BME280;56050;55.558;-4.644;2022-08-03T03:25:04;100377.91;;;18.39;66.38
64853;BME280;56050;55.558;-4.644;2022-08-03T03:27:30;100387.31;;;18.38;66.51
64853;BME280;56050;55.558;-4.644;2022-08-03T03:29:58;100383.81;;;18.38;66.56
64853;BME280;56050;55.558;-4.644;2022-08-03T03:32:26;100385.78;;;18.37;66.77
64853;BME280;56050;55.558;-4.644;2022-08-03T03:34:54;100392.00;;;18.38;67.00
64853;BME280;56050;55.558;-4.644;2022-08-03T03:37:21;100381.97;;;18.35;67.00
64853;BME280;56050;55.558;-4.644;2022-08-03T03:39:47;100385.16;;;18.33;67.15
64853;BME280;56050;55.558;-4.644;2022-08-03T03:42:12;100391.19;;;18.28;67.06
64853;BME280;56050;55.558;-4.644;2022-08-03T03:44:38;100388.28;;;18.23;67.20
64853;BME280;56050;55.558;-4.644;2022-08-03T03:47:04;100386.13;;;18.17;67.53
64853;BME280;56050;55.558;-4.644;2022-08-03T03:49:30;100387.91;;;18.11;67.67
64853;BME280;56050;55.558;-4.644;2022-08-03T03:51:55;100382.28;;;18.06;67.85
64853;BME280;56050;55.558;-4.644;2022-08-03T03:54:21;100377.06;;;17.99;67.66
64853;BME280;56050;55.558;-4.644;2022-08-03T03:56:47;100371.13;;;17.91;68.13
64853;BME280;56050;55.558;-4.644;2022-08-03T03:59:12;100370.94;;;17.86;67.96
64853;BME280;56050;55.558;-4.644;2022-08-03T04:01:39;100386.03;;;17.78;68.08
64853;BME280;56050;55.558;-4.644;2022-08-03T04:04:05;100381.56;;;17.71;68.33
64853;BME280;56050;55.558;-4.644;2022-08-03T04:06:51;100378.97;;;17.68;68.59
64853;BME280;56050;55.558;-4.644;2022-08-03T04:09:37;100375.63;;;17.64;68.38
64853;BME280;56050;55.558;-4.644;2022-08-03T04:12:25;100379.69;;;17.59;68.69
64853;BME280;56050;55.558;-4.644;2022-08-03T04:14:55;100365.28;;;17.58;68.75
64853;BME280;56050;55.558;-4.644;2022-08-03T04:17:22;100373.88;;;17.57;68.90
64853;BME280;56050;55.558;-4.644;2022-08-03T04:19:52;100367.38;;;17.54;68.82
64853;BME280;56050;55.558;-4.644;2022-08-03T04:22:24;100364.31;;;17.52;68.96
64853;BME280;56050;55.558;-4.644;2022-08-03T04:24:55;100365.63;;;17.48;69.19
64853;BME280;56050;55.558;-4.644;2022-08-03T04:27:25;100362.25;;;17.44;69.06
64853;BME280;56050;55.558;-4.644;2022-08-03T04:29:53;100364.97;;;17.44;69.22
64853;BME280;56050;55.558;-4.644;2022-08-03T04:32:20;100366.19;;;17.43;69.33
64853;BME280;56050;55.558;-4.644;2022-08-03T04:34:49;100377.41;;;17.45;69.25
64853;BME280;56050;55.558;-4.644;2022-08-03T04:37:40;100379.56;;;17.50;69.52
64853;BME280;56050;55.558;-4.644;2022-08-03T04:40:14;100380.97;;;17.54;69.50
64853;BME280;56050;55.558;-4.644;2022-08-03T04:42:41;100376.19;;;17.58;69.68
64853;BME280;56050;55.558;-4.644;2022-08-03T04:45:10;100381.63;;;17.58;69.75
64853;BME280;56050;55.558;-4.644;2022-08-03T04:47:37;100385.75;;;17.63;69.79
64853;BME280;56050;55.558;-4.644;2022-08-03T04:50:04;100388.03;;;17.65;69.66
64853;BME280;56050;55.558;-4.644;2022-08-03T04:52:30;100386.41;;;17.67;69.45
64853;BME280;56050;55.558;-4.644;2022-08-03T04:54:55;100399.16;;;17.70;69.60
64853;BME280;56050;55.558;-4.644;2022-08-03T04:57:22;100391.69;;;17.71;69.45
64853;BME280;56050;55.558;-4.644;2022-08-03T04:59:47;100392.78;;;17.73;69.25
64853;BME280;56050;55.558;-4.644;2022-08-03T05:02:17;100398.13;;;17.77;69.46
64853;BME280;56050;55.558;-4.644;2022-08-03T05:04:42;100408.13;;;17.80;69.37
64853;BME280;56050;55.558;-4.644;2022-08-03T05:07:11;100402.38;;;17.78;69.55
64853;BME280;56050;55.558;-4.644;2022-08-03T05:09:38;100394.19;;;17.78;69.26
64853;BME280;56050;55.558;-4.644;2022-08-03T05:12:05;100394.06;;;17.81;69.44
64853;BME280;56050;55.558;-4.644;2022-08-03T05:14:32;100389.69;;;17.84;69.33
64853;BME280;56050;55.558;-4.644;2022-08-03T05:16:57;100386.53;;;17.85;69.24
64853;BME280;56050;55.558;-4.644;2022-08-03T05:19:23;100391.84;;;17.89;69.33
64853;BME280;56050;55.558;-4.644;2022-08-03T05:21:48;100397.63;;;17.91;69.03
64853;BME280;56050;55.558;-4.644;2022-08-03T05:24:14;100399.16;;;17.92;69.27
64853;BME280;56050;55.558;-4.644;2022-08-03T05:26:39;100402.59;;;17.92;68.97
64853;BME280;56050;55.558;-4.644;2022-08-03T05:29:06;100405.47;;;17.89;69.00
64853;BME280;56050;55.558;-4.644;2022-08-03T05:31:31;100396.84;;;17.90;69.33
64853;BME280;56050;55.558;-4.644;2022-08-03T05:33:57;100397.31;;;17.89;69.01
64853;BME280;56050;55.558;-4.644;2022-08-03T05:36:22;100407.00;;;17.90;69.08
64853;BME280;56050;55.558;-4.644;2022-08-03T05:38:48;100408.22;;;17.89;68.97
64853;BME280;56050;55.558;-4.644;2022-08-03T05:41:13;100416.69;;;17.91;69.04
64853;BME280;56050;55.558;-4.644;2022-08-03T05:43:39;100410.78;;;17.92;69.21
64853;BME280;56050;55.558;-4.644;2022-08-03T05:46:05;100422.47;;;17.93;68.95
64853;BME280;56050;55.558;-4.644;2022-08-03T05:48:31;100415.03;;;17.93;68.78
64853;BME280;56050;55.558;-4.644;2022-08-03T05:50:56;100427.47;;;17.94;68.75
64853;BME280;56050;55.558;-4.644;2022-08-03T05:53:22;100418.84;;;17.96;69.02
64853;BME280;56050;55.558;-4.644;2022-08-03T05:55:47;100428.56;;;17.97;68.76
64853;BME280;56050;55.558;-4.644;2022-08-03T05:58:13;100431.28;;;17.97;68.42
64853;BME280;56050;55.558;-4.644;2022-08-03T06:00:40;100441.09;;;17.94;68.67
64853;BME280;56050;55.558;-4.644;2022-08-03T06:03:05;100443.38;;;17.96;68.48
64853;BME280;56050;55.558;-4.644;2022-08-03T06:05:32;100451.25;;;17.94;68.52
64853;BME280;56050;55.558;-4.644;2022-08-03T06:08:01;100456.69;;;17.94;68.44
64853;BME280;56050;55.558;-4.644;2022-08-03T06:10:26;100455.94;;;17.93;68.41
64853;BME280;56050;55.558;-4.644;2022-08-03T06:12:52;100451.66;;;17.92;68.39
64853;BME280;56050;55.558;-4.644;2022-08-03T06:15:17;100447.44;;;17.91;68.46
64853;BME280;56050;55.558;-4.644;2022-08-03T06:17:50;100454.09;;;17.90;68.49
64853;BME280;56050;55.558;-4.644;2022-08-03T06:20:18;100452.44;;;17.93;68.37
64853;BME280;56050;55.558;-4.644;2022-08-03T06:22:45;100459.13;;;17.92;68.10
64853;BME280;56050;55.558;-4.644;2022-08-03T06:25:11;100467.72;;;17.90;67.95
64853;BME280;56050;55.558;-4.644;2022-08-03T06:27:36;100465.56;;;17.85;68.10
64853;BME280;56050;55.558;-4.644;2022-08-03T06:30:08;100464.03;;;17.84;68.11
64853;BME280;56050;55.558;-4.644;2022-08-03T06:32:38;100470.69;;;17.83;68.20
64853;BME280;56050;55.558;-4.644;2022-08-03T06:35:08;100459.44;;;17.81;68.17
64853;BME280;56050;55.558;-4.644;2022-08-03T06:37:41;100477.78;;;17.81;67.95
64853;BME280;56050;55.558;-4.644;2022-08-03T06:40:11;100484.75;;;17.82;67.88
64853;BME280;56050;55.558;-4.644;2022-08-03T06:42:37;100479.28;;;17.82;67.72
64853;BME280;56050;55.558;-4.644;2022-08-03T06:45:02;100487.94;;;17.80;67.58
64853;BME280;56050;55.558;-4.644;2022-08-03T06:47:28;100488.34;;;17.79;67.79
64853;BME280;56050;55.558;-4.644;2022-08-03T06:49:53;100479.75;;;17.80;67.73
64853;BME280;56050;55.558;-4.644;2022-08-03T06:52:19;100477.78;;;17.81;67.76
64853;BME280;56050;55.558;-4.644;2022-08-03T06:54:44;100464.91;;;17.81;67.89
64853;BME280;56050;55.558;-4.644;2022-08-03T06:57:10;100464.03;;;17.84;67.75
64853;BME280;56050;55.558;-4.644;2022-08-03T06:59:36;100465.44;;;17.89;67.78
64853;BME280;56050;55.558;-4.644;2022-08-03T07:02:01;100460.31;;;17.91;67.69
64853;BME280;56050;55.558;-4.644;2022-08-03T07:04:27;100468.38;;;17.94;67.89
64853;BME280;56050;55.558;-4.644;2022-08-03T07:06:52;100455.81;;;17.97;67.66
64853;BME280;56050;55.558;-4.644;2022-08-03T07:09:19;100460.38;;;18.00;67.68
64853;BME280;56050;55.558;-4.644;2022-08-03T07:11:44;100462.53;;;18.05;67.41
64853;BME280;56050;55.558;-4.644;2022-08-03T07:14:10;100464.06;;;18.06;67.46
64853;BME280;56050;55.558;-4.644;2022-08-03T07:16:36;100465.16;;;18.08;67.22
64853;BME280;56050;55.558;-4.644;2022-08-03T07:19:01;100473.31;;;18.08;67.27
64853;BME280;56050;55.558;-4.644;2022-08-03T07:21:27;100476.78;;;18.09;67.02
64853;BME280;56050;55.558;-4.644;2022-08-03T07:23:52;100477.56;;;18.09;67.14
64853;BME280;56050;55.558;-4.644;2022-08-03T07:26:18;100474.81;;;18.09;67.14
64853;BME280;56050;55.558;-4.644;2022-08-03T07:28:43;100495.13;;;18.08;67.43
64853;BME280;56050;55.558;-4.644;2022-08-03T07:31:09;100493.91;;;18.09;67.32
64853;BME280;56050;55.558;-4.644;2022-08-03T07:33:34;100505.16;;;18.11;67.33
64853;BME280;56050;55.558;-4.644;2022-08-03T07:36:00;100496.22;;;18.11;66.84
64853;BME280;56050;55.558;-4.644;2022-08-03T07:38:26;100499.50;;;18.06;66.91
64853;BME280;56050;55.558;-4.644;2022-08-03T07:40:52;100513.69;;;18.01;67.39
64853;BME280;56050;55.558;-4.644;2022-08-03T07:43:19;100513.81;;;17.97;67.73
64853;BME280;56050;55.558;-4.644;2022-08-03T07:45:45;100508.16;;;17.92;67.72
64853;BME280;56050;55.558;-4.644;2022-08-03T07:48:11;100498.91;;;17.89;68.12
64853;BME280;56050;55.558;-4.644;2022-08-03T07:50:37;100508.41;;;17.85;68.06
64853;BME280;56050;55.558;-4.644;2022-08-03T07:53:03;100511.56;;;17.83;68.06
64853;BME280;56050;55.558;-4.644;2022-08-03T07:55:28;100517.78;;;17.84;68.44
64853;BME280;56050;55.558;-4.644;2022-08-03T07:58:02;100517.03;;;17.83;68.46
64853;BME280;56050;55.558;-4.644;2022-08-03T08:00:29;100525.06;;;17.87;68.78
64853;BME280;56050;55.558;-4.644;2022-08-03T08:02:54;100527.66;;;17.90;68.74
64853;BME280;56050;55.558;-4.644;2022-08-03T08:05:20;100524.38;;;17.95;68.63
64853;BME280;56050;55.558;-4.644;2022-08-03T08:07:45;100530.50;;;17.99;68.84
64853;BME280;56050;55.558;-4.644;2022-08-03T08:10:11;100539.75;;;18.02;68.71
64853;BME280;56050;55.558;-4.644;2022-08-03T08:12:37;100547.81;;;18.05;68.54
64853;BME280;56050;55.558;-4.644;2022-08-03T08:15:04;100534.94;;;18.06;68.31
64853;BME280;56050;55.558;-4.644;2022-08-03T08:17:30;100538.00;;;18.08;68.29
64853;BME280;56050;55.558;-4.644;2022-08-03T08:19:55;100543.44;;;18.08;68.52
64853;BME280;56050;55.558;-4.644;2022-08-03T08:22:22;100553.47;;;18.11;68.20
64853;BME280;56050;55.558;-4.644;2022-08-03T08:24:47;100556.97;;;18.11;68.13
64853;BME280;56050;55.558;-4.644;2022-08-03T08:27:14;100553.78;;;18.13;68.02
64853;BME280;56050;55.558;-4.644;2022-08-03T08:29:40;100560.31;;;18.15;68.05
64853;BME280;56050;55.558;-4.644;2022-08-03T08:32:05;100575.47;;;18.16;67.99
64853;BME280;56050;55.558;-4.644;2022-08-03T08:34:31;100570.78;;;18.17;67.89
64853;BME280;56050;55.558;-4.644;2022-08-03T08:36:56;100583.66;;;18.16;67.70
64853;BME280;56050;55.558;-4.644;2022-08-03T08:39:23;100584.09;;;18.15;67.87
64853;BME280;56050;55.558;-4.644;2022-08-03T08:41:51;100572.09;;;18.12;67.81
64853;BME280;56050;55.558;-4.644;2022-08-03T08:44:17;100585.72;;;18.12;67.99
64853;BME280;56050;55.558;-4.644;2022-08-03T08:46:42;100589.22;;;18.13;67.89
64853;BME280;56050;55.558;-4.644;2022-08-03T08:49:08;100596.53;;;18.16;67.78
64853;BME280;56050;55.558;-4.644;2022-08-03T08:51:35;100599.16;;;18.19;67.97
64853;BME280;56050;55.558;-4.644;2022-08-03T08:54:06;100604.91;;;18.22;67.74
64853;BME280;56050;55.558;-4.644;2022-08-03T08:56:32;100617.78;;;18.21;67.63
64853;BME280;56050;55.558;-4.644;2022-08-03T08:58:59;100615.81;;;18.22;67.68
64853;BME280;56050;55.558;-4.644;2022-08-03T09:01:26;100616.59;;;18.22;67.59
64853;BME280;56050;55.558;-4.644;2022-08-03T09:03:52;100615.06;;;18.21;67.65
64853;BME280;56050;55.558;-4.644;2022-08-03T09:06:22;100631.41;;;18.21;67.36
64853;BME280;56050;55.558;-4.644;2022-08-03T09:08:48;100624.00;;;18.22;67.19
64853;BME280;56050;55.558;-4.644;2022-08-03T09:11:14;100620.06;;;18.23;67.28
64853;BME280;56050;55.558;-4.644;2022-08-03T09:13:40;100621.59;;;18.24;67.36
64853;BME280;56050;55.558;-4.644;2022-08-03T09:16:20;100625.97;;;18.21;67.27
64853;BME280;56050;55.558;-4.644;2022-08-03T09:18:51;100622.16;;;18.18;67.53
64853;BME280;56050;55.558;-4.644;2022-08-03T09:21:24;100627.28;;;18.16;67.73
64853;BME280;56050;55.558;-4.644;2022-08-03T09:23:53;100633.94;;;18.15;67.55
64853;BME280;56050;55.558;-4.644;2022-08-03T09:26:28;100643.66;;;18.16;67.83
64853;BME280;56050;55.558;-4.644;2022-08-03T09:28:56;100644.41;;;18.17;67.68
64853;BME280;56050;55.558;-4.644;2022-08-03T09:31:29;100641.13;;;18.09;68.05
64853;BME280;56050;55.558;-4.644;2022-08-03T09:33:56;100652.91;;;18.06;68.31
64853;BME280;56050;55.558;-4.644;2022-08-03T09:36:35;100647.50;;;17.94;68.47
64853;BME280;56050;55.558;-4.644;2022-08-03T09:39:03;100657.41;;;17.88;68.86
64853;BME280;56050;55.558;-4.644;2022-08-03T09:41:35;100654.56;;;17.79;69.00
64853;BME280;56050;55.558;-4.644;2022-08-03T09:44:01;100644.34;;;17.70;69.33
64853;BME280;56050;55.558;-4.644;2022-08-03T09:46:26;100646.09;;;17.64;69.70
64853;BME280;56050;55.558;-4.644;2022-08-03T09:49:08;100656.88;;;17.55;69.57
64853;BME280;56050;55.558;-4.644;2022-08-03T09:51:34;100651.88;;;17.53;69.78
64853;BME280;56050;55.558;-4.644;2022-08-03T09:53:59;100646.81;;;17.52;70.24
64853;BME280;56050;55.558;-4.644;2022-08-03T09:56:45;100658.56;;;17.49;70.58
64853;BME280;56050;55.558;-4.644;2022-08-03T09:59:13;100659.78;;;17.48;70.93
64853;BME280;56050;55.558;-4.644;2022-08-03T10:01:47;100666.84;;;17.45;71.04
64853;BME280;56050;55.558;-4.644;2022-08-03T10:04:14;100665.00;;;17.42;71.48
64853;BME280;56050;55.558;-4.644;2022-08-03T10:07:03;100678.28;;;17.40;71.30
64853;BME280;56050;55.558;-4.644;2022-08-03T10:09:28;100679.28;;;17.46;71.54
64853;BME280;56050;55.558;-4.644;2022-08-03T10:11:55;100683.09;;;17.49;71.48
64853;BME280;56050;55.558;-4.644;2022-08-03T10:14:21;100686.91;;;17.51;71.75
64853;BME280;56050;55.558;-4.644;2022-08-03T10:16:48;100691.94;;;17.53;72.09
64853;BME280;56050;55.558;-4.644;2022-08-03T10:19:15;100691.84;;;17.56;71.96
64853;BME280;56050;55.558;-4.644;2022-08-03T10:21:47;100690.66;;;17.57;71.83
64853;BME280;56050;55.558;-4.644;2022-08-03T10:24:15;100699.03;;;17.63;72.15
64853;BME280;56050;55.558;-4.644;2022-08-03T10:26:43;100692.28;;;17.68;72.01
64853;BME280;56050;55.558;-4.644;2022-08-03T10:29:18;100691.63;;;17.76;71.83
64853;BME280;56050;55.558;-4.644;2022-08-03T10:31:46;100690.66;;;17.83;71.87
64853;BME280;56050;55.558;-4.644;2022-08-03T10:34:18;100674.22;;;17.86;71.68
64853;BME280;56050;55.558;-4.644;2022-08-03T10:36:46;100695.47;;;17.91;71.69
64853;BME280;56050;55.558;-4.644;2022-08-03T10:39:13;100709.22;;;18.00;71.63
64853;BME280;56050;55.558;-4.644;2022-08-03T10:41:42;100723.69;;;18.10;71.71
64853;BME280;56050;55.558;-4.644;2022-08-03T10:44:16;100709.84;;;18.17;71.16
64853;BME280;56050;55.558;-4.644;2022-08-03T10:46:43;100725.44;;;18.29;71.17
64853;BME280;56050;55.558;-4.644;2022-08-03T10:49:13;100719.41;;;18.34;71.20
64853;BME280;56050;55.558;-4.644;2022-08-03T10:51:41;100716.56;;;18.38;71.20
64853;BME280;56050;55.558;-4.644;2022-08-03T10:57:02;100735.44;;;18.45;71.06
64853;BME280;56050;55.558;-4.644;2022-08-03T11:00:07;100735.34;;;18.48;70.84
64853;BME280;56050;55.558;-4.644;2022-08-03T11:03:05;100726.28;;;18.51;71.08
64853;BME280;56050;55.558;-4.644;2022-08-03T11:05:41;100743.19;;;18.59;70.71
64853;BME280;56050;55.558;-4.644;2022-08-03T11:08:30;100758.47;;;18.69;70.76
64853;BME280;56050;55.558;-4.644;2022-08-03T11:10:59;100748.06;;;18.76;70.67
64853;BME280;56050;55.558;-4.644;2022-08-03T11:13:26;100745.09;;;18.84;70.54
64853;BME280;56050;55.558;-4.644;2022-08-03T11:15:57;100753.03;;;18.91;70.30
64853;BME280;56050;55.558;-4.644;2022-08-03T11:18:24;100741.56;;;18.96;70.07
64853;BME280;56050;55.558;-4.644;2022-08-03T11:20:50;100747.88;;;19.05;70.23
64853;BME280;56050;55.558;-4.644;2022-08-03T11:23:19;100734.06;;;19.09;69.96
64853;BME280;56050;55.558;-4.644;2022-08-03T11:26:17;100757.00;;;19.11;69.63
64853;BME280;56050;55.558;-4.644;2022-08-03T11:28:45;100753.38;;;19.14;69.43
64853;BME280;56050;55.558;-4.644;2022-08-03T11:34:08;100752.94;;;19.16;69.60
64853;BME280;56050;55.558;-4.644;2022-08-03T11:39:44;100756.66;;;19.22;68.90
64853;BME280;56050;55.558;-4.644;2022-08-03T11:44:53;100756.66;;;19.22;68.93
64853;BME280;56050;55.558;-4.644;2022-08-03T11:47:19;100763.94;;;19.25;68.86
64853;BME280;56050;55.558;-4.644;2022-08-03T11:49:50;100766.66;;;19.25;68.76
64853;BME280;56050;55.558;-4.644;2022-08-03T11:52:19;100769.38;;;19.25;68.70
64853;BME280;56050;55.558;-4.644;2022-08-03T11:54:45;100775.00;;;19.21;68.54
64853;BME280;56050;55.558;-4.644;2022-08-03T11:57:36;100765.84;;;19.15;68.72
64853;BME280;56050;55.558;-4.644;2022-08-03T12:00:31;100772.94;;;19.13;68.63
64853;BME280;56050;55.558;-4.644;2022-08-03T12:03:03;100767.50;;;19.13;68.38
64853;BME280;56050;55.558;-4.644;2022-08-03T12:05:39;100786.41;;;19.07;68.57
64853;BME280;56050;55.558;-4.644;2022-08-03T12:08:07;100779.88;;;19.05;68.72
64853;BME280;56050;55.558;-4.644;2022-08-03T12:10:34;100782.59;;;19.05;68.44
64853;BME280;56050;55.558;-4.644;2022-08-03T12:13:01;100796.25;;;19.05;68.57
64853;BME280;56050;55.558;-4.644;2022-08-03T12:15:31;100798.78;;;18.99;68.51
64853;BME280;56050;55.558;-4.644;2022-08-03T12:18:02;100803.03;;;19.00;68.57
64853;BME280;56050;55.558;-4.644;2022-08-03T12:20:29;100806.84;;;19.03;68.46
64853;BME280;56050;55.558;-4.644;2022-08-03T12:23:02;100799.75;;;19.05;68.66
64853;BME280;56050;55.558;-4.644;2022-08-03T12:25:28;100808.56;;;19.09;68.33
64853;BME280;56050;55.558;-4.644;2022-08-03T12:28:08;100808.56;;;19.09;68.25
64853;BME280;56050;55.558;-4.644;2022-08-03T12:30:50;100817.97;;;19.08;68.20
64853;BME280;56050;55.558;-4.644;2022-08-03T12:33:21;100814.72;;;19.01;68.17
64853;BME280;56050;55.558;-4.644;2022-08-03T12:35:51;100814.00;;;18.88;68.10
64853;BME280;56050;55.558;-4.644;2022-08-03T12:38:26;100820.16;;;18.66;68.65
64853;BME280;56050;55.558;-4.644;2022-08-03T12:41:01;100828.78;;;18.52;69.13
64853;BME280;56050;55.558;-4.644;2022-08-03T12:43:27;100831.59;;;18.36;69.79
64853;BME280;56050;55.558;-4.644;2022-08-03T12:46:14;100837.25;;;18.16;69.95
64853;BME280;56050;55.558;-4.644;2022-08-03T12:49:15;100841.81;;;18.07;70.28
64853;BME280;56050;55.558;-4.644;2022-08-03T12:54:16;100835.72;;;18.03;70.76
64853;BME280;56050;55.558;-4.644;2022-08-03T12:57:04;100843.88;;;18.03;70.78
64853;BME280;56050;55.558;-4.644;2022-08-03T12:59:35;100844.31;;;18.01;71.30
64853;BME280;56050;55.558;-4.644;2022-08-03T13:02:03;100852.16;;;17.99;71.20
64853;BME280;56050;55.558;-4.644;2022-08-03T13:04:31;100840.06;;;18.00;71.41
64853;BME280;56050;55.558;-4.644;2022-08-03T13:07:05;100835.81;;;17.99;71.43
64853;BME280;56050;55.558;-4.644;2022-08-03T13:09:48;100844.31;;;18.01;71.45
64853;BME280;56050;55.558;-4.644;2022-08-03T13:12:16;100843.75;;;18.06;71.38
64853;BME280;56050;55.558;-4.644;2022-08-03T13:14:43;100849.88;;;18.10;71.72
64853;BME280;56050;55.558;-4.644;2022-08-03T13:17:10;100853.03;;;18.09;71.67